createdAt,value
2023-02-02T00:00:25.409Z,2.03
2023-02-02T00:02:53.692Z,1.88
2023-02-02T00:05:23.562Z,1.98
2023-02-02T00:07:52.461Z,1.60
2023-02-02T00:10:20.856Z,1.60
2023-02-02T00:12:49.099Z,2.22
2023-02-02T00:15:17.439Z,1.80
2023-02-02T00:17:45.681Z,1.73
2023-02-02T00:20:14.180Z,1.50
2023-02-02T00:22:43.856Z,1.60
2023-02-02T00:25:12.118Z,1.83
2023-02-02T00:27:40.379Z,1.98
2023-02-02T00:30:09.480Z,1.58
2023-02-02T00:32:37.752Z,1.70
2023-02-02T00:35:06.098Z,1.67
2023-02-02T00:37:34.375Z,1.67
2023-02-02T00:40:04.015Z,2.13
2023-02-02T00:42:32.254Z,2.10
2023-02-02T00:45:17.886Z,2.05
2023-02-02T00:47:46.865Z,1.48
2023-02-02T00:50:15.953Z,0.88
2023-02-02T00:52:44.420Z,0.90
2023-02-02T00:55:14.720Z,0.68
2023-02-02T00:57:44.294Z,0.68
2023-02-02T01:00:14.149Z,0.70
2023-02-02T01:02:42.478Z,0.68
2023-02-02T01:05:11.160Z,0.90
2023-02-02T01:07:39.686Z,1.80
2023-02-02T01:10:08.824Z,2.00
2023-02-02T01:12:39.848Z,2.05
2023-02-02T01:15:08.602Z,1.92
2023-02-02T01:17:36.958Z,1.92
2023-02-02T01:20:05.880Z,1.80
2023-02-02T01:22:34.855Z,2.70
2023-02-02T01:25:03.153Z,0.98
2023-02-02T01:27:31.413Z,0.80
2023-02-02T01:30:01.092Z,0.57
2023-02-02T01:32:29.381Z,1.30
2023-02-02T01:34:57.757Z,0.50
2023-02-02T01:37:26.121Z,0.50
2023-02-02T01:39:54.407Z,0.60
2023-02-02T01:42:23.388Z,0.50
2023-02-02T01:45:04.508Z,2.70
2023-02-02T01:47:35.850Z,0.70
2023-02-02T01:50:04.679Z,0.47
2023-02-02T01:52:34.144Z,0.60
2023-02-02T01:55:08.275Z,0.88
2023-02-02T01:57:38.367Z,0.80
2023-02-02T02:00:08.451Z,2.47
2023-02-02T02:02:39.539Z,1.40
2023-02-02T02:05:08.531Z,0.40
2023-02-02T02:07:36.868Z,0.88
2023-02-02T02:10:05.329Z,0.60
2023-02-02T02:12:33.639Z,0.40
2023-02-02T02:15:19.795Z,0.77
2023-02-02T02:17:55.839Z,0.40
2023-02-02T02:21:08.740Z,0.40
2023-02-02T02:24:10.402Z,0.28
2023-02-02T02:26:50.194Z,0.40
2023-02-02T02:29:25.336Z,0.70
2023-02-02T02:32:11.347Z,0.30
2023-02-02T02:34:45.486Z,0.40
2023-02-02T02:37:18.588Z,0.30
2023-02-02T02:39:49.584Z,0.43
2023-02-02T02:42:19.283Z,0.30
2023-02-02T02:44:49.356Z,0.32
2023-02-02T02:47:18.050Z,0.28
2023-02-02T02:49:48.652Z,0.13
2023-02-02T02:52:17.608Z,0.20
2023-02-02T02:54:49.761Z,0.20
2023-02-02T02:57:26.212Z,0.20
2023-02-02T02:59:59.736Z,0.20
2023-02-02T03:02:40.861Z,0.32
2023-02-02T03:05:20.132Z,0.30
2023-02-02T03:07:50.613Z,0.20
2023-02-02T03:10:20.853Z,0.40
2023-02-02T03:12:50.218Z,0.32
2023-02-02T03:15:19.230Z,0.30
2023-02-02T03:17:49.179Z,0.28
2023-02-02T03:20:19.529Z,0.30
2023-02-02T03:22:47.827Z,0.20
2023-02-02T03:25:16.635Z,0.22
2023-02-02T03:27:45.221Z,0.30
2023-02-02T03:30:15.611Z,0.30
2023-02-02T03:32:44.035Z,0.38
2023-02-02T03:35:12.339Z,0.20
2023-02-02T03:37:41.955Z,0.30
2023-02-02T03:40:10.910Z,0.50
2023-02-02T03:42:39.206Z,0.30
2023-02-02T03:45:07.962Z,0.47
2023-02-02T03:47:36.238Z,0.40
2023-02-02T03:50:04.505Z,0.38
2023-02-02T03:52:32.803Z,0.50
2023-02-02T03:55:02.439Z,0.47
2023-02-02T03:57:30.767Z,0.52
2023-02-02T03:59:59.054Z,0.60
2023-02-02T04:02:27.366Z,0.50
2023-02-02T04:04:55.654Z,0.60
2023-02-02T04:07:23.998Z,0.80
2023-02-02T04:09:52.279Z,0.60
2023-02-02T04:12:21.954Z,0.70
2023-02-02T04:14:50.246Z,0.60
2023-02-02T04:17:18.545Z,0.80
2023-02-02T04:19:47.077Z,1.33
2023-02-02T04:22:15.422Z,1.85
2023-02-02T04:24:43.701Z,0.70
2023-02-02T04:27:12.038Z,0.75
2023-02-02T04:29:41.645Z,0.80
2023-02-02T04:32:09.959Z,0.98
2023-02-02T04:34:38.231Z,0.80
2023-02-02T04:37:06.595Z,1.05
2023-02-02T04:39:34.932Z,1.10
2023-02-02T04:42:03.774Z,1.30
2023-02-02T04:44:32.065Z,1.27
2023-02-02T04:47:01.696Z,1.70
2023-02-02T04:49:30.510Z,1.70
2023-02-02T04:51:58.821Z,1.83
2023-02-02T04:54:27.081Z,1.83
2023-02-02T04:56:55.364Z,1.70
2023-02-02T04:59:23.753Z,1.30
2023-02-02T05:01:52.177Z,1.38
2023-02-02T05:04:22.184Z,1.10
2023-02-02T05:06:50.483Z,1.25
2023-02-02T05:09:18.773Z,1.40
2023-02-02T05:11:47.123Z,1.40
2023-02-02T05:14:27.845Z,1.83
2023-02-02T05:17:00.450Z,1.80
2023-02-02T05:19:30.232Z,2.03
2023-02-02T05:22:09.643Z,3.05
2023-02-02T05:24:49.719Z,4.15
2023-02-02T05:27:19.668Z,10.80
2023-02-02T05:29:48.604Z,4.07
2023-02-02T05:32:17.071Z,2.90
2023-02-02T05:34:46.731Z,1.30
2023-02-02T05:37:15.077Z,1.27
2023-02-02T05:39:43.362Z,1.60
2023-02-02T05:42:11.642Z,1.45
2023-02-02T05:44:39.897Z,1.40
2023-02-02T05:47:09.006Z,1.70
2023-02-02T05:49:37.285Z,1.70
2023-02-02T05:52:07.067Z,1.50
2023-02-02T05:54:35.313Z,1.30
2023-02-02T05:57:05.715Z,1.70
2023-02-02T05:59:35.991Z,1.77
2023-02-02T06:02:04.279Z,1.20
2023-02-02T06:04:32.527Z,1.60
2023-02-02T06:07:00.839Z,1.40
2023-02-02T06:09:30.516Z,1.50
2023-02-02T06:11:58.825Z,1.50
2023-02-02T06:14:27.077Z,1.58
2023-02-02T06:16:55.393Z,1.80
2023-02-02T06:19:23.712Z,1.50
2023-02-02T06:21:52.004Z,1.65
2023-02-02T06:24:20.255Z,1.70
2023-02-02T06:26:49.941Z,1.38
2023-02-02T06:29:18.262Z,1.38
2023-02-02T06:31:46.717Z,1.80
2023-02-02T06:34:15.557Z,1.92
2023-02-02T06:36:44.204Z,2.50
2023-02-02T06:39:12.954Z,2.38
2023-02-02T06:41:41.474Z,2.20
2023-02-02T06:44:11.126Z,3.38
2023-02-02T06:46:39.474Z,2.70
2023-02-02T06:49:07.787Z,3.20
2023-02-02T06:51:36.154Z,3.88
2023-02-02T06:54:04.458Z,3.55
2023-02-02T06:56:32.764Z,3.90
2023-02-02T06:59:01.434Z,5.72
2023-02-02T07:01:31.354Z,3.83
2023-02-02T07:03:59.722Z,2.85
2023-02-02T07:06:29.066Z,6.10
2023-02-02T07:09:02.949Z,4.72
2023-02-02T07:11:33.722Z,4.53
2023-02-02T07:14:03.213Z,3.50
2023-02-02T07:16:32.941Z,3.30
2023-02-02T07:19:03.649Z,3.10
2023-02-02T07:21:35.799Z,3.17
2023-02-02T07:24:04.666Z,3.80
2023-02-02T07:26:36.549Z,3.83
2023-02-02T07:29:04.964Z,4.68
2023-02-02T07:31:36.657Z,3.92
2023-02-02T07:34:05.269Z,4.22
2023-02-02T07:36:33.560Z,4.57
2023-02-02T07:39:04.407Z,4.78
2023-02-02T07:41:32.754Z,13.45
2023-02-02T07:44:01.780Z,16.52
2023-02-02T07:46:30.131Z,20.88
2023-02-02T07:48:59.797Z,11.35
2023-02-02T07:51:28.096Z,4.72
2023-02-02T07:53:58.489Z,2.25
2023-02-02T07:56:27.782Z,2.10
2023-02-02T07:58:56.851Z,2.08
2023-02-02T08:01:26.310Z,1.60
2023-02-02T08:03:54.973Z,2.20
2023-02-02T08:06:25.094Z,2.05
2023-02-02T08:08:53.895Z,2.20
2023-02-02T08:11:22.999Z,2.53
2023-02-02T08:13:51.816Z,2.08
2023-02-02T08:16:20.814Z,1.90
2023-02-02T08:18:49.411Z,1.92
2023-02-02T08:21:18.634Z,1.88
2023-02-02T08:23:48.297Z,2.47
2023-02-02T08:26:17.928Z,2.67
2023-02-02T08:28:47.112Z,2.30
2023-02-02T08:31:16.818Z,2.10
2023-02-02T08:33:45.187Z,2.33
2023-02-02T08:36:14.013Z,2.60
2023-02-02T08:38:42.320Z,2.28
2023-02-02T08:41:13.398Z,2.45
2023-02-02T08:43:41.948Z,2.50
2023-02-02T08:46:11.238Z,2.58
2023-02-02T08:48:39.978Z,2.40
2023-02-02T08:51:09.329Z,2.47
2023-02-02T08:53:37.589Z,2.05
2023-02-02T08:56:07.373Z,2.28
2023-02-02T08:58:37.063Z,3.10
2023-02-02T09:01:06.937Z,2.70
2023-02-02T09:03:35.377Z,3.65
2023-02-02T09:06:07.366Z,3.08
2023-02-02T09:08:35.801Z,3.08
2023-02-02T09:11:08.118Z,2.65
2023-02-02T09:13:38.594Z,2.55
2023-02-02T09:16:08.209Z,3.90
2023-02-02T09:18:36.591Z,2.85
2023-02-02T09:21:06.262Z,2.63
2023-02-02T09:23:35.569Z,2.30
2023-02-02T09:26:11.359Z,2.60
2023-02-02T09:28:43.561Z,2.35
2023-02-02T09:31:12.378Z,2.70
2023-02-02T09:33:40.917Z,2.35
2023-02-02T09:36:11.490Z,2.72
2023-02-02T09:38:40.268Z,2.97
2023-02-02T09:41:16.691Z,2.40
2023-02-02T09:43:54.134Z,2.35
2023-02-02T09:46:27.848Z,2.58
2023-02-02T09:48:58.698Z,2.55
2023-02-02T09:51:28.212Z,1.98
2023-02-02T09:53:58.635Z,2.90
2023-02-02T09:56:34.668Z,2.38
2023-02-02T09:59:18.679Z,2.70
2023-02-02T10:01:48.291Z,2.75
2023-02-02T10:04:18.790Z,2.28
2023-02-02T10:06:48.660Z,2.30
2023-02-02T10:09:26.103Z,2.42
2023-02-02T10:11:56.766Z,2.28
2023-02-02T10:14:29.898Z,2.17
2023-02-02T10:16:59.849Z,4.05
2023-02-02T10:19:30.721Z,2.13
2023-02-02T10:22:03.460Z,3.75
2023-02-02T10:24:35.376Z,3.25
2023-02-02T10:27:06.978Z,2.78
2023-02-02T10:29:48.827Z,9.43
2023-02-02T10:32:23.611Z,8.82
2023-02-02T10:35:12.931Z,11.50
2023-02-02T10:37:43.971Z,7.32
2023-02-02T10:40:16.932Z,4.15
2023-02-02T10:43:07.326Z,2.73
2023-02-02T10:45:37.789Z,2.55
2023-02-02T10:48:09.374Z,2.65
2023-02-02T10:50:37.725Z,2.60
2023-02-02T10:53:12.300Z,2.60
2023-02-02T10:55:42.791Z,3.10
2023-02-02T10:58:15.940Z,2.75
2023-02-02T11:00:50.648Z,2.17
2023-02-02T11:03:20.164Z,2.30
2023-02-02T11:06:06.415Z,2.72
2023-02-02T11:08:36.069Z,2.33
2023-02-02T11:11:11.666Z,1.63
2023-02-02T11:13:45.909Z,2.25
2023-02-02T11:16:22.854Z,2.15
2023-02-02T11:18:51.238Z,2.88
2023-02-02T11:21:23.555Z,2.00
2023-02-02T11:23:59.854Z,2.25
2023-02-02T11:26:29.028Z,2.55
2023-02-02T11:28:59.970Z,1.60
2023-02-02T11:31:34.436Z,2.38
2023-02-02T11:34:20.567Z,2.30
2023-02-02T11:37:12.133Z,1.90
2023-02-02T11:39:40.821Z,1.85
2023-02-02T11:42:10.489Z,2.10
2023-02-02T11:44:40.521Z,1.55
2023-02-02T11:47:17.287Z,1.63
2023-02-02T11:49:45.654Z,1.55
2023-02-02T11:52:19.985Z,2.00
2023-02-02T11:54:53.961Z,1.40
2023-02-02T11:57:28.310Z,1.55
2023-02-02T12:00:09.250Z,1.70
2023-02-02T12:02:41.992Z,2.00
2023-02-02T12:05:33.751Z,1.80
2023-02-02T12:08:04.969Z,1.88
2023-02-02T12:10:38.828Z,2.17
2023-02-02T12:15:41.274Z,4.28
2023-02-02T12:18:16.123Z,2.80
2023-02-02T12:20:46.005Z,2.20
2023-02-02T12:23:26.966Z,2.30
2023-02-02T12:26:07.211Z,1.52
2023-02-02T12:28:43.105Z,1.55
2023-02-02T12:31:14.017Z,1.60
2023-02-02T12:33:49.547Z,2.67
2023-02-02T12:36:25.270Z,2.40
2023-02-02T12:39:07.995Z,2.28
2023-02-02T12:41:40.924Z,2.75
2023-02-02T12:44:15.731Z,2.57
2023-02-02T12:47:05.076Z,1.50
2023-02-02T12:49:41.588Z,1.45
2023-02-02T12:52:16.736Z,1.63
2023-02-02T12:54:52.491Z,1.02
2023-02-02T12:57:26.633Z,1.35
2023-02-02T13:00:05.276Z,1.30
2023-02-02T13:02:37.562Z,1.40
2023-02-02T13:05:17.328Z,1.45
2023-02-02T13:07:49.801Z,1.20
2023-02-02T13:10:20.747Z,1.50
2023-02-02T13:12:51.816Z,1.38
2023-02-02T13:15:24.315Z,1.30
2023-02-02T13:17:57.834Z,1.25
2023-02-02T13:20:32.364Z,1.48
2023-02-02T13:23:07.116Z,1.60
2023-02-02T13:25:42.150Z,1.15
2023-02-02T13:28:16.305Z,1.20
2023-02-02T13:30:49.575Z,1.00
2023-02-02T13:33:27.846Z,1.02
2023-02-02T13:36:03.765Z,1.08
2023-02-02T13:38:47.210Z,1.27
2023-02-02T13:41:16.906Z,1.38
2023-02-02T13:43:51.223Z,1.35
2023-02-02T13:46:25.725Z,1.50
2023-02-02T13:49:06.641Z,1.20
2023-02-02T13:51:56.650Z,1.73
2023-02-02T13:54:45.841Z,1.33
2023-02-02T13:57:20.393Z,1.33
2023-02-02T13:59:57.772Z,1.80
2023-02-02T14:02:31.162Z,1.60
2023-02-02T14:05:02.085Z,1.48
2023-02-02T14:07:41.922Z,1.77
2023-02-02T14:10:23.774Z,1.70
2023-02-02T14:12:56.237Z,1.40
2023-02-02T14:15:42.381Z,2.03
2023-02-02T14:18:13.645Z,2.03
2023-02-02T14:20:49.184Z,1.48
2023-02-02T14:23:36.390Z,1.33
2023-02-02T14:26:12.376Z,1.60
2023-02-02T14:28:42.576Z,1.77
2023-02-02T14:31:31.630Z,2.25
2023-02-02T14:34:18.770Z,2.80
2023-02-02T14:36:54.065Z,2.10
2023-02-02T14:39:23.986Z,1.90
2023-02-02T14:42:30.620Z,1.80
2023-02-02T14:45:16.178Z,1.83
2023-02-02T14:47:48.262Z,1.50
2023-02-02T14:50:18.700Z,2.00
2023-02-02T14:52:48.041Z,2.33
2023-02-02T14:55:24.100Z,2.13
2023-02-02T14:58:01.303Z,2.17
2023-02-02T15:00:33.367Z,2.65
2023-02-02T15:03:16.692Z,8.25
2023-02-02T15:05:47.414Z,2.33
2023-02-02T15:08:35.215Z,2.00
2023-02-02T15:11:27.869Z,2.45
2023-02-02T15:14:19.839Z,2.22
2023-02-02T15:16:54.240Z,1.70
2023-02-02T15:19:32.490Z,1.80
2023-02-02T15:22:09.052Z,1.60
2023-02-02T15:24:43.620Z,1.85
2023-02-02T15:27:20.004Z,1.60
2023-02-02T15:29:53.932Z,1.90
2023-02-02T15:32:45.319Z,1.70
2023-02-02T15:35:20.720Z,1.80
2023-02-02T15:37:52.446Z,1.80
2023-02-02T15:40:28.280Z,1.83
2023-02-02T15:42:59.001Z,1.55
2023-02-02T15:45:40.263Z,1.40
2023-02-02T15:48:30.036Z,1.85
2023-02-02T15:51:00.794Z,1.80
2023-02-02T15:53:30.290Z,1.73
2023-02-02T15:56:02.173Z,1.50
2023-02-02T15:58:33.653Z,1.50
2023-02-02T16:01:10.649Z,1.80
2023-02-02T16:03:44.089Z,1.30
2023-02-02T16:06:12.514Z,1.50
2023-02-02T16:08:43.436Z,4.13
2023-02-02T16:11:16.913Z,1.73
2023-02-02T16:13:51.093Z,1.70
2023-02-02T16:16:30.505Z,1.77
2023-02-02T16:19:14.793Z,1.52
2023-02-02T16:24:15.046Z,1.30
2023-02-02T16:26:47.312Z,1.58
2023-02-02T16:29:19.189Z,2.08
2023-02-02T16:31:48.140Z,1.52
2023-02-02T16:34:48.383Z,1.52
2023-02-02T16:37:19.867Z,1.75
2023-02-02T16:39:48.210Z,1.80
2023-02-02T16:42:28.886Z,2.03
2023-02-02T16:44:58.158Z,2.67
2023-02-02T16:47:34.019Z,2.88
2023-02-02T16:50:30.958Z,2.75
2023-02-02T16:53:05.529Z,2.35
2023-02-02T16:55:50.348Z,2.35
2023-02-02T16:58:30.161Z,2.05
2023-02-02T17:01:15.366Z,2.10
2023-02-02T17:03:48.809Z,1.63
2023-02-02T17:06:19.771Z,1.73
2023-02-02T17:08:49.467Z,2.00
2023-02-02T17:11:28.660Z,6.03
2023-02-02T17:14:06.690Z,4.28
2023-02-02T17:16:36.653Z,2.17
2023-02-02T17:19:18.024Z,1.85
2023-02-02T17:21:49.607Z,1.65
2023-02-02T17:24:19.248Z,2.10
2023-02-02T17:26:50.311Z,2.40
2023-02-02T17:29:21.217Z,2.60
2023-02-02T17:31:49.689Z,2.30
2023-02-02T17:34:18.059Z,2.35
2023-02-02T17:36:46.455Z,2.55
2023-02-02T17:39:14.784Z,2.53
2023-02-02T17:42:00.681Z,2.05
2023-02-02T17:44:33.304Z,2.20
2023-02-02T17:47:07.381Z,3.40
2023-02-02T17:49:40.399Z,5.30
2023-02-02T17:52:12.701Z,3.17
2023-02-02T17:54:41.091Z,3.53
2023-02-02T17:57:12.945Z,2.17
2023-02-02T17:59:44.753Z,1.92
2023-02-02T18:02:14.757Z,2.38
2023-02-02T18:04:45.451Z,2.38
2023-02-02T18:07:14.104Z,2.03
2023-02-02T18:09:42.418Z,2.00
2023-02-02T18:12:12.178Z,2.05
2023-02-02T18:14:40.453Z,2.47
2023-02-02T18:17:11.579Z,2.20
2023-02-02T18:19:47.055Z,2.08
2023-02-02T18:22:21.230Z,2.20
2023-02-02T18:24:51.245Z,1.90
2023-02-02T18:27:21.291Z,2.60
2023-02-02T18:29:49.617Z,15.75
2023-02-02T18:32:20.366Z,3.95
2023-02-02T18:34:51.525Z,10.52
2023-02-02T18:37:19.856Z,4.45
2023-02-02T18:39:48.236Z,8.23
2023-02-02T18:42:16.631Z,3.00
2023-02-02T18:44:47.913Z,2.50
2023-02-02T18:47:16.228Z,2.50
2023-02-02T18:49:44.490Z,2.67
2023-02-02T18:52:12.779Z,3.10
2023-02-02T18:54:41.146Z,2.60
2023-02-02T18:57:13.872Z,2.40
2023-02-02T18:59:42.235Z,2.90
2023-02-02T19:02:14.528Z,2.30
2023-02-02T19:05:03.763Z,2.83
2023-02-02T19:07:50.289Z,2.30
2023-02-02T19:10:19.247Z,2.25
2023-02-02T19:12:49.846Z,2.17
2023-02-02T19:15:18.203Z,2.15
2023-02-02T19:17:50.126Z,1.42
2023-02-02T19:20:25.565Z,2.10
2023-02-02T19:22:56.809Z,2.25
2023-02-02T19:25:25.619Z,1.70
2023-02-02T19:27:54.226Z,2.10
2023-02-02T19:30:23.796Z,1.55
2023-02-02T19:32:53.842Z,1.30
2023-02-02T19:35:26.122Z,1.55
2023-02-02T19:38:01.404Z,1.63
2023-02-02T19:40:29.751Z,1.73
2023-02-02T19:43:01.226Z,1.35
2023-02-02T19:45:30.288Z,1.63
2023-02-02T19:48:02.369Z,1.52
2023-02-02T19:50:34.213Z,1.58
2023-02-02T19:53:08.763Z,1.80
2023-02-02T19:55:42.963Z,1.45
2023-02-02T19:58:23.490Z,1.70
2023-02-02T20:00:53.063Z,1.58
2023-02-02T20:03:24.610Z,2.60
2023-02-02T20:05:54.026Z,1.77
2023-02-02T20:08:26.576Z,1.92
2023-02-02T20:10:55.578Z,1.80
2023-02-02T20:13:25.126Z,1.90
2023-02-02T20:16:03.337Z,2.20
2023-02-02T20:18:36.947Z,2.28
2023-02-02T20:21:09.315Z,1.63
2023-02-02T20:23:42.078Z,2.28
2023-02-02T20:26:18.711Z,2.10
2023-02-02T20:28:47.194Z,1.92
2023-02-02T20:31:16.970Z,2.20
2023-02-02T20:33:48.344Z,2.13
2023-02-02T20:36:26.899Z,1.80
2023-02-02T20:38:55.935Z,2.03
2023-02-02T20:41:24.489Z,1.90
2023-02-02T20:43:55.955Z,1.90
2023-02-02T20:46:26.869Z,1.60
2023-02-02T20:48:58.791Z,2.20
2023-02-02T20:51:27.132Z,1.95
2023-02-02T20:53:56.663Z,2.90
2023-02-02T20:56:25.518Z,2.05
2023-02-02T20:58:54.482Z,2.45
2023-02-02T21:01:23.471Z,2.53
2023-02-02T21:03:51.929Z,2.35
2023-02-02T21:06:21.758Z,2.10
2023-02-02T21:08:52.453Z,2.00
2023-02-02T21:11:23.658Z,2.05
2023-02-02T21:13:59.488Z,2.13
2023-02-02T21:16:30.642Z,2.22
2023-02-02T21:19:03.298Z,2.13
2023-02-02T21:21:33.399Z,2.72
2023-02-02T21:24:01.916Z,2.80
2023-02-02T21:26:32.098Z,2.35
2023-02-02T21:29:00.557Z,3.20
2023-02-02T21:31:30.084Z,3.03
2023-02-02T21:33:59.632Z,2.58
2023-02-02T21:36:35.880Z,2.60
2023-02-02T21:39:16.407Z,2.47
2023-02-02T21:41:47.068Z,2.50
2023-02-02T21:44:16.094Z,2.40
2023-02-02T21:46:46.059Z,2.25
2023-02-02T21:49:25.151Z,2.50
2023-02-02T21:51:56.579Z,2.53
2023-02-02T21:54:36.591Z,2.20
2023-02-02T21:57:13.707Z,2.63
2023-02-02T21:59:45.132Z,2.08
2023-02-02T22:02:28.879Z,2.50
2023-02-02T22:04:59.207Z,2.05
2023-02-02T22:07:29.165Z,2.55
2023-02-02T22:09:57.935Z,2.30
2023-02-02T22:12:43.946Z,2.70
2023-02-02T22:15:17.801Z,2.20
2023-02-02T22:20:25.998Z,2.28
2023-02-02T22:22:57.343Z,2.60
2023-02-02T22:25:30.914Z,2.20
2023-02-02T22:28:00.189Z,2.67
2023-02-02T22:30:30.368Z,2.78
2023-02-02T22:33:00.607Z,2.30
2023-02-02T22:35:29.105Z,2.28
2023-02-02T22:37:58.850Z,2.65
2023-02-02T22:40:29.848Z,2.40
2023-02-02T22:42:59.007Z,2.63
2023-02-02T22:45:30.948Z,2.83
2023-02-02T22:48:03.902Z,2.63
2023-02-02T22:50:37.588Z,2.60
2023-02-02T22:53:16.552Z,2.60
2023-02-02T22:55:50.850Z,2.40
2023-02-02T22:58:19.392Z,2.53
2023-02-02T23:00:47.844Z,2.50
2023-02-02T23:03:16.473Z,2.42
2023-02-02T23:05:44.853Z,2.35
2023-02-02T23:08:24.359Z,2.90
2023-02-02T23:10:54.780Z,2.72
2023-02-02T23:13:24.912Z,2.50
2023-02-02T23:15:53.266Z,3.03
2023-02-02T23:18:22.025Z,2.63
2023-02-02T23:20:50.703Z,2.55
2023-02-02T23:23:20.406Z,2.75
2023-02-02T23:25:48.744Z,2.58
2023-02-02T23:28:17.103Z,2.38
2023-02-02T23:30:45.444Z,2.80
2023-02-02T23:33:13.726Z,2.72
2023-02-02T23:35:42.086Z,3.28
2023-02-02T23:38:12.755Z,3.05
2023-02-02T23:40:42.402Z,2.28
2023-02-02T23:43:10.979Z,2.30
2023-02-02T23:45:39.887Z,2.55
2023-02-02T23:48:08.843Z,2.70
2023-02-02T23:50:38.746Z,2.70
2023-02-02T23:53:07.254Z,2.63
2023-02-02T23:55:35.616Z,2.42
2023-02-02T23:58:06.050Z,3.05
